Time;durP1;ratioP1;P1;durP2;ratioP2;P2;SDS_P1;SDS_P2;PMS_P1;PMS_P2;Temp;Humidity;BMP_temperature;BMP_pressure;BME280_temperature;BME280_humidity;BME280_pressure;Samples;Min_cycle;Max_cycle;Signal;HPM_P1;HPM_P2
2022/10/31 00:01:10;;;;;;;11.85;6.35;;;15.10;99.90;;;;;;5061562;28;25065;-72
2022/10/31 00:03:36;;;;;;;13.52;5.97;;;15.10;99.90;;;;;;5068529;28;25074;-73
2022/10/31 00:06:02;;;;;;;11.48;6.10;;;15.10;99.90;;;;;;5069812;28;25062;-72
2022/10/31 00:08:27;;;;;;;15.93;6.18;;;15.10;99.90;;;;;;5074698;28;25063;-72
2022/10/31 00:10:53;;;;;;;16.15;6.82;;;15.10;99.90;;;;;;5046190;28;25119;-73
2022/10/31 00:13:18;;;;;;;12.32;6.72;;;15.00;99.90;;;;;;5046318;28;25079;-72
2022/10/31 00:15:44;;;;;;;12.98;6.50;;;15.10;99.90;;;;;;5066208;28;25097;-72
2022/10/31 00:18:10;;;;;;;15.93;7.50;;;15.00;99.90;;;;;;5058943;28;25134;-72
2022/10/31 00:20:36;;;;;;;16.88;7.57;;;15.00;99.90;;;;;;5072188;28;25076;-72
2022/10/31 00:23:03;;;;;;;14.02;6.50;;;14.90;99.90;;;;;;5063152;28;25142;-72
2022/10/31 00:25:33;;;;;;;16.10;7.50;;;15.00;99.90;;;;;;5072853;28;25125;-72
2022/10/31 00:27:58;;;;;;;20.05;6.78;;;14.90;99.90;;;;;;5072366;28;25056;-72
2022/10/31 00:30:24;;;;;;;15.30;6.82;;;14.80;99.90;;;;;;5061228;28;25153;-72
2022/10/31 00:32:49;;;;;;;16.48;7.95;;;14.70;99.90;;;;;;5068907;28;25124;-72
2022/10/31 00:35:15;;;;;;;13.88;7.18;;;14.70;99.90;;;;;;5064148;28;25068;-71
2022/10/31 00:37:41;;;;;;;18.10;7.57;;;14.80;99.90;;;;;;5060939;28;25540;-72
2022/10/31 00:40:07;;;;;;;17.38;7.70;;;14.70;99.90;;;;;;5067449;28;25134;-73
2022/10/31 00:42:32;;;;;;;9.98;6.57;;;14.60;99.90;;;;;;5085777;28;25103;-72
2022/10/31 00:44:58;;;;;;;14.05;6.80;;;14.60;99.90;;;;;;5076331;28;25108;-72
2022/10/31 00:47:23;;;;;;;12.70;7.00;;;14.50;99.90;;;;;;5068287;28;25060;-72
2022/10/31 00:49:49;;;;;;;13.00;7.35;;;14.50;99.90;;;;;;5062636;28;25106;-72
2022/10/31 00:52:14;;;;;;;21.13;7.03;;;14.60;99.90;;;;;;5068164;28;25112;-72
2022/10/31 00:54:40;;;;;;;11.70;7.03;;;14.60;99.90;;;;;;5063842;28;25054;-72
2022/10/31 00:57:05;;;;;;;18.50;7.75;;;14.60;99.90;;;;;;5075154;28;25097;-72
2022/10/31 00:59:31;;;;;;;13.52;7.18;;;14.60;99.90;;;;;;5072071;28;25078;-73
2022/10/31 01:01:57;;;;;;;13.10;7.43;;;14.60;99.90;;;;;;5063387;28;25069;-72
2022/10/31 01:04:22;;;;;;;13.95;6.40;;;14.60;99.90;;;;;;5053408;28;25049;-72
2022/10/31 01:06:48;;;;;;;11.50;6.97;;;14.60;99.90;;;;;;5061223;28;25132;-72
2022/10/31 01:09:13;;;;;;;16.17;6.53;;;14.50;99.90;;;;;;5066439;28;25066;-72
2022/10/31 01:11:39;;;;;;;17.08;7.53;;;14.30;99.90;;;;;;5062777;28;25062;-72
2022/10/31 01:14:05;;;;;;;16.80;7.03;;;14.30;99.90;;;;;;5052040;28;25119;-71
2022/10/31 01:16:30;;;;;;;18.77;7.80;;;14.30;99.90;;;;;;5061694;28;25075;-72
2022/10/31 01:18:56;;;;;;;12.85;6.90;;;14.30;99.90;;;;;;5045991;28;25079;-72
2022/10/31 01:21:24;;;;;;;12.73;7.05;;;14.20;99.90;;;;;;5063796;28;25062;-73
2022/10/31 01:23:52;;;;;;;13.60;7.70;;;14.10;99.90;;;;;;5066388;28;25123;-71
2022/10/31 01:26:21;;;;;;;14.60;7.63;;;14.10;99.90;;;;;;5063168;28;25124;-72
2022/10/31 01:28:58;;;;;;;12.70;7.03;;;14.00;99.90;;;;;;5073842;28;25057;-71
2022/10/31 01:31:26;;;;;;;20.75;7.63;;;13.90;99.90;;;;;;5064028;28;25133;-71
2022/10/31 01:33:52;;;;;;;15.23;8.07;;;13.80;99.90;;;;;;5043887;28;25061;-71
2022/10/31 01:36:23;;;;;;;17.42;8.25;;;13.70;99.90;;;;;;5066926;28;25076;-72
2022/10/31 01:38:51;;;;;;;19.00;8.57;;;13.70;99.90;;;;;;5062728;28;25081;-72
2022/10/31 01:41:24;;;;;;;18.05;8.65;;;13.80;99.90;;;;;;5063660;28;25132;-72
2022/10/31 01:43:57;;;;;;;15.25;7.90;;;13.90;99.90;;;;;;5057289;28;25070;-72
2022/10/31 01:46:27;;;;;;;19.42;7.78;;;13.80;99.90;;;;;;5054658;28;25064;-72
2022/10/31 01:48:55;;;;;;;14.43;8.32;;;13.80;99.90;;;;;;5064518;28;25100;-72
2022/10/31 01:51:25;;;;;;;13.82;7.55;;;13.80;99.90;;;;;;5062315;28;25080;-70
2022/10/31 01:53:54;;;;;;;15.15;8.10;;;13.60;99.90;;;;;;5068869;28;25057;-72
2022/10/31 01:56:20;;;;;;;22.90;7.25;;;13.50;99.90;;;;;;5044182;28;25120;-72
2022/10/31 01:58:46;;;;;;;12.98;7.53;;;13.50;99.90;;;;;;5063557;28;25054;-72
2022/10/31 02:01:14;;;;;;;13.73;7.78;;;13.60;99.90;;;;;;5073594;28;25172;-72
2022/10/31 02:03:40;;;;;;;14.90;8.45;;;13.50;99.90;;;;;;5062265;28;25079;-71
2022/10/31 02:06:13;;;;;;;17.50;8.45;;;13.50;99.90;;;;;;5045786;28;25108;-71
2022/10/31 02:08:39;;;;;;;18.33;8.10;;;13.40;99.90;;;;;;5045356;28;25131;-72
2022/10/31 02:11:07;;;;;;;14.13;8.10;;;13.50;99.90;;;;;;5063794;28;25072;-72
2022/10/31 02:13:34;;;;;;;14.20;7.65;;;13.50;99.90;;;;;;5062554;28;25093;-72
2022/10/31 02:16:00;;;;;;;17.25;8.57;;;13.40;99.90;;;;;;5062863;28;25066;-72
2022/10/31 02:18:29;;;;;;;17.95;8.32;;;13.50;99.90;;;;;;5070563;28;25107;-71
2022/10/31 02:21:19;;;;;;;17.85;8.45;;;13.50;99.90;;;;;;5073838;28;25070;-71
2022/10/31 02:23:51;;;;;;;15.98;7.72;;;13.50;99.90;;;;;;5047531;28;25152;-71
2022/10/31 02:26:50;;;;;;;11.68;7.25;;;13.60;99.90;;;;;;5057410;28;25142;-72
2022/10/31 02:29:45;;;;;;;16.42;8.68;;;13.60;99.90;;;;;;5059186;28;25094;-72
2022/10/31 02:32:11;;;;;;;13.10;7.55;;;13.60;99.90;;;;;;5070140;28;25080;-71
2022/10/31 02:34:57;;;;;;;14.25;8.48;;;13.60;99.90;;;;;;5063869;28;25063;-72
2022/10/31 02:37:33;;;;;;;13.13;7.60;;;13.60;99.90;;;;;;5065367;28;25083;-72
2022/10/31 02:40:04;;;;;;;17.92;8.60;;;13.60;99.90;;;;;;5064849;28;25121;-72
2022/10/31 02:42:51;;;;;;;13.95;8.13;;;13.60;99.90;;;;;;5072402;28;25132;-70
2022/10/31 02:45:23;;;;;;;18.20;8.60;;;13.60;99.90;;;;;;5074952;28;25091;-71
2022/10/31 02:47:53;;;;;;;19.60;9.52;;;13.50;99.90;;;;;;5068154;28;25101;-72
2022/10/31 02:50:36;;;;;;;13.05;7.75;;;13.40;99.90;;;;;;5066826;28;25071;-72
2022/10/31 02:53:02;;;;;;;14.77;8.15;;;13.40;99.90;;;;;;5058902;28;25153;-72
2022/10/31 02:55:28;;;;;;;13.63;8.27;;;13.40;99.90;;;;;;5068808;28;25100;-72
2022/10/31 02:57:59;;;;;;;19.33;8.88;;;13.40;99.90;;;;;;5064789;28;25175;-72
2022/10/31 03:00:25;;;;;;;18.33;9.93;;;13.60;99.90;;;;;;5074406;28;25068;-72
2022/10/31 03:03:06;;;;;;;21.10;9.52;;;13.60;99.90;;;;;;5068241;28;25078;-71
2022/10/31 03:05:51;;;;;;;24.60;10.13;;;13.60;99.90;;;;;;5061171;28;25065;-72
2022/10/31 03:08:44;;;;;;;16.38;9.25;;;13.60;99.90;;;;;;5069167;28;25081;-72
2022/10/31 03:11:10;;;;;;;21.33;10.00;;;13.70;99.90;;;;;;5075773;28;25062;-71
2022/10/31 03:13:50;;;;;;;22.38;10.35;;;13.80;99.90;;;;;;5069642;28;25071;-72
2022/10/31 03:16:40;;;;;;;25.20;11.45;;;13.90;99.90;;;;;;5078632;28;25064;-72
2022/10/31 03:19:12;;;;;;;20.15;10.52;;;14.00;99.90;;;;;;5067251;28;25081;-72
2022/10/31 03:21:43;;;;;;;17.27;10.20;;;14.10;99.90;;;;;;5070525;28;25096;-74
2022/10/31 03:24:11;;;;;;;21.77;11.02;;;14.10;99.90;;;;;;5063423;28;25127;-74
2022/10/31 03:26:46;;;;;;;25.67;11.60;;;14.00;99.90;;;;;;5056244;28;25131;-77
2022/10/31 03:29:16;;;;;;;23.80;10.52;;;14.00;99.90;;;;;;5054432;28;25072;-73
2022/10/31 03:31:54;;;;;;;21.77;11.50;;;14.10;99.90;;;;;;5059666;28;25137;-73
2022/10/31 03:34:20;;;;;;;21.38;11.20;;;14.00;99.90;;;;;;5051524;28;25061;-74
2022/10/31 03:36:50;;;;;;;27.83;11.70;;;13.90;99.90;;;;;;5059944;28;25142;-74
2022/10/31 03:39:19;;;;;;;19.17;10.98;;;13.90;99.90;;;;;;5055245;28;25046;-75
2022/10/31 03:41:50;;;;;;;21.85;11.57;;;13.90;99.90;;;;;;5054563;28;25102;-74
2022/10/31 03:44:21;;;;;;;19.95;11.40;;;13.90;99.90;;;;;;5051724;28;25066;-73
2022/10/31 03:46:46;;;;;;;20.15;11.38;;;14.10;99.90;;;;;;5052972;28;25081;-73
2022/10/31 03:49:13;;;;;;;28.40;10.82;;;14.00;99.90;;;;;;5058268;28;25141;-74
2022/10/31 03:51:48;;;;;;;22.35;10.45;;;13.90;99.90;;;;;;5060007;28;25101;-74
2022/10/31 03:54:14;;;;;;;21.85;10.88;;;14.00;99.90;;;;;;5051992;28;25094;-74
2022/10/31 03:57:06;;;;;;;21.08;10.55;;;14.00;99.90;;;;;;5035392;28;25099;-75
2022/10/31 03:59:39;;;;;;;18.15;11.27;;;13.80;99.90;;;;;;5053094;28;25118;-75
2022/10/31 04:02:14;;;;;;;22.73;10.55;;;13.80;99.90;;;;;;5051756;28;25092;-75
2022/10/31 04:04:41;;;;;;;23.63;12.35;;;13.70;99.90;;;;;;5053685;28;25132;-75
2022/10/31 04:07:09;;;;;;;23.60;11.40;;;13.70;99.90;;;;;;5058836;28;25054;-73
2022/10/31 04:09:37;;;;;;;19.05;10.85;;;13.80;99.90;;;;;;5054073;28;25120;-74
2022/10/31 04:12:08;;;;;;;23.23;11.63;;;13.70;99.90;;;;;;5057404;28;25057;-73
2022/10/31 04:14:37;;;;;;;22.95;11.13;;;13.70;99.90;;;;;;5043236;28;25090;-75
2022/10/31 04:17:07;;;;;;;21.80;11.23;;;13.70;99.90;;;;;;5061462;28;25123;-74
2022/10/31 04:19:33;;;;;;;22.58;11.75;;;13.70;99.90;;;;;;5050003;28;25059;-74
2022/10/31 04:21:59;;;;;;;21.63;11.77;;;13.70;99.90;;;;;;5070467;28;25065;-75
2022/10/31 04:24:24;;;;;;;21.65;10.68;;;13.50;99.90;;;;;;5059412;28;25068;-74
2022/10/31 04:26:50;;;;;;;24.45;11.88;;;13.50;99.90;;;;;;5040638;28;25067;-73
2022/10/31 04:29:16;;;;;;;22.58;11.02;;;13.50;99.90;;;;;;5045102;28;25110;-75
2022/10/31 04:31:41;;;;;;;20.45;11.75;;;13.50;99.90;;;;;;5045413;28;25065;-74
2022/10/31 04:34:07;;;;;;;22.80;12.93;;;13.50;99.90;;;;;;5061962;28;25107;-74
2022/10/31 04:36:32;;;;;;;22.73;11.48;;;13.60;99.90;;;;;;5059752;28;25095;-74
2022/10/31 04:38:58;;;;;;;21.90;11.07;;;13.60;99.90;;;;;;5040329;28;25087;-74
2022/10/31 04:41:24;;;;;;;21.00;11.50;;;13.60;99.90;;;;;;5060300;28;25146;-73
2022/10/31 04:43:49;;;;;;;21.73;11.07;;;13.50;99.90;;;;;;5063742;28;25096;-75
2022/10/31 04:46:15;;;;;;;25.85;11.55;;;13.40;99.90;;;;;;5051402;28;25071;-73
2022/10/31 04:48:41;;;;;;;22.20;12.27;;;13.50;99.90;;;;;;5062612;28;25150;-74
2022/10/31 04:51:06;;;;;;;20.83;11.70;;;13.50;99.90;;;;;;5064198;28;25080;-71
2022/10/31 04:53:32;;;;;;;24.45;13.07;;;13.50;99.90;;;;;;5055022;28;25106;-72
2022/10/31 04:56:00;;;;;;;22.00;11.25;;;13.40;99.90;;;;;;5072360;28;25065;-74
2022/10/31 04:58:26;;;;;;;23.35;12.20;;;13.30;99.90;;;;;;5069834;28;25074;-72
2022/10/31 05:00:56;;;;;;;21.67;12.38;;;13.20;99.90;;;;;;5048920;28;25146;-75
2022/10/31 05:03:22;;;;;;;24.23;13.25;;;13.20;99.90;;;;;;5059194;28;25144;-74
2022/10/31 05:05:47;;;;;;;24.15;12.80;;;13.20;99.90;;;;;;5068439;28;25356;-74
2022/10/31 05:08:14;;;;;;;27.80;12.68;;;13.30;99.90;;;;;;5050750;28;25076;-72
2022/10/31 05:10:39;;;;;;;22.88;12.88;;;13.40;99.90;;;;;;5074591;28;25109;-72
2022/10/31 05:13:05;;;;;;;26.95;13.38;;;13.20;99.90;;;;;;5063705;28;25088;-74
2022/10/31 05:15:31;;;;;;;26.33;12.73;;;13.20;99.90;;;;;;5060365;28;25171;-73
2022/10/31 05:17:57;;;;;;;25.02;12.90;;;13.30;99.90;;;;;;5070708;28;25081;-73
2022/10/31 05:20:29;;;;;;;30.75;13.57;;;13.10;99.90;;;;;;5053337;28;25075;-74
2022/10/31 05:22:56;;;;;;;21.60;11.90;;;13.20;99.90;;;;;;5071095;28;25065;-75
2022/10/31 05:25:24;;;;;;;26.25;13.15;;;13.20;99.90;;;;;;5072166;28;25068;-75
2022/10/31 05:27:51;;;;;;;24.02;12.98;;;13.30;99.90;;;;;;5066969;28;25097;-75
2022/10/31 05:30:20;;;;;;;35.15;12.98;;;13.20;99.90;;;;;;5065647;28;25049;-73
2022/10/31 05:32:47;;;;;;;24.30;11.38;;;13.20;99.90;;;;;;5059800;28;25160;-73
2022/10/31 05:35:15;;;;;;;33.55;14.65;;;13.10;99.90;;;;;;5057832;28;25058;-74
2022/10/31 05:37:41;;;;;;;27.42;12.80;;;13.10;99.90;;;;;;5068944;28;25165;-74
2022/10/31 05:40:10;;;;;;;23.83;11.95;;;13.10;99.90;;;;;;5063769;28;25067;-74
2022/10/31 05:42:37;;;;;;;25.35;12.95;;;13.10;99.90;;;;;;5065056;28;25081;-74
2022/10/31 05:45:03;;;;;;;21.27;11.48;;;13.10;99.90;;;;;;5057955;28;25101;-72
2022/10/31 05:47:29;;;;;;;22.80;12.05;;;13.30;99.90;;;;;;5029659;28;25138;-74
2022/10/31 05:49:55;;;;;;;26.38;12.63;;;13.40;99.90;;;;;;5058208;28;25076;-72
2022/10/31 05:52:20;;;;;;;23.63;12.80;;;13.30;99.90;;;;;;5063954;28;25061;-73
2022/10/31 05:54:46;;;;;;;26.38;12.88;;;13.40;99.90;;;;;;5037918;28;25063;-73
2022/10/31 05:57:11;;;;;;;29.25;12.80;;;13.40;99.90;;;;;;5052845;28;25105;-74
2022/10/31 05:59:37;;;;;;;27.20;12.63;;;13.40;99.90;;;;;;5047683;28;25123;-74
2022/10/31 06:02:04;;;;;;;28.05;13.43;;;13.50;99.90;;;;;;5050683;28;25134;-74
2022/10/31 06:04:29;;;;;;;29.05;13.63;;;13.30;99.90;;;;;;5052170;28;25125;-74
2022/10/31 06:06:56;;;;;;;29.52;11.95;;;13.30;99.90;;;;;;5054002;28;25090;-74
2022/10/31 06:09:22;;;;;;;25.38;12.10;;;13.40;99.90;;;;;;5058822;28;25094;-73
2022/10/31 06:11:48;;;;;;;21.48;12.23;;;13.40;99.90;;;;;;5051381;28;25103;-73
2022/10/31 06:14:13;;;;;;;26.08;13.48;;;13.30;99.90;;;;;;5051084;28;25069;-74
2022/10/31 06:16:39;;;;;;;24.65;12.10;;;13.30;99.90;;;;;;5049686;28;25062;-73
2022/10/31 06:19:04;;;;;;;28.52;12.75;;;13.30;99.90;;;;;;5046379;28;25069;-75
2022/10/31 06:21:30;;;;;;;24.05;12.18;;;13.10;99.90;;;;;;5041390;28;25139;-74
2022/10/31 06:23:55;;;;;;;28.50;12.20;;;13.00;99.90;;;;;;5050609;28;25083;-75
2022/10/31 06:26:21;;;;;;;30.10;11.95;;;13.00;99.90;;;;;;5053112;28;25086;-74
2022/10/31 06:28:46;;;;;;;22.42;12.18;;;13.10;99.90;;;;;;5064847;28;25105;-73
2022/10/31 06:31:12;;;;;;;24.08;12.75;;;13.10;99.90;;;;;;5056328;28;25116;-74
2022/10/31 06:33:38;;;;;;;24.50;11.90;;;13.10;99.90;;;;;;5053216;28;25057;-73
2022/10/31 06:36:04;;;;;;;28.00;11.98;;;13.00;99.90;;;;;;5053250;28;25094;-74
2022/10/31 06:38:29;;;;;;;23.92;10.88;;;13.00;99.90;;;;;;5050954;28;25056;-74
2022/10/31 06:40:55;;;;;;;30.02;12.10;;;13.00;99.90;;;;;;5058802;28;25128;-75
2022/10/31 06:43:21;;;;;;;24.83;12.60;;;13.00;99.90;;;;;;5036492;28;25117;-74
2022/10/31 06:45:47;;;;;;;25.55;12.13;;;13.00;99.90;;;;;;5057693;28;25153;-73
2022/10/31 06:48:13;;;;;;;30.35;12.85;;;13.00;99.90;;;;;;5049372;28;25123;-73
2022/10/31 06:50:38;;;;;;;24.40;11.43;;;13.00;99.90;;;;;;5050566;28;25108;-74
2022/10/31 06:53:04;;;;;;;26.40;12.70;;;12.90;99.90;;;;;;5049682;28;25136;-74
2022/10/31 06:55:29;;;;;;;25.67;12.07;;;12.80;99.90;;;;;;5057441;28;25068;-74
2022/10/31 06:57:57;;;;;;;25.00;12.02;;;12.90;99.90;;;;;;5049051;28;25107;-75
2022/10/31 07:00:24;;;;;;;21.83;11.77;;;13.00;99.90;;;;;;5053844;28;25069;-74
2022/10/31 07:02:54;;;;;;;25.77;11.45;;;13.00;99.90;;;;;;5058560;28;25060;-73
2022/10/31 07:05:19;;;;;;;23.10;11.98;;;13.00;99.90;;;;;;5053601;28;25073;-74
2022/10/31 07:07:45;;;;;;;26.80;13.13;;;13.30;99.90;;;;;;5055824;28;25172;-74
2022/10/31 07:10:11;;;;;;;23.35;12.43;;;13.30;99.90;;;;;;5052436;28;25168;-74
2022/10/31 07:12:36;;;;;;;23.70;11.50;;;13.20;99.90;;;;;;5055372;28;25056;-74
2022/10/31 07:15:02;;;;;;;22.55;11.65;;;13.30;99.90;;;;;;5051366;28;25059;-74
2022/10/31 07:17:27;;;;;;;23.23;13.10;;;13.40;99.90;;;;;;5049259;28;25113;-74
2022/10/31 07:19:53;;;;;;;22.80;12.90;;;13.40;99.90;;;;;;5060332;28;25085;-73
2022/10/31 07:22:18;;;;;;;27.30;13.77;;;13.40;99.90;;;;;;5056329;28;25122;-73
2022/10/31 07:24:44;;;;;;;28.27;14.65;;;13.40;99.90;;;;;;5054141;28;25056;-73
2022/10/31 07:27:09;;;;;;;31.02;13.98;;;13.50;99.90;;;;;;5056224;28;25102;-73
2022/10/31 07:29:35;;;;;;;30.67;13.65;;;13.70;99.90;;;;;;5054647;28;25057;-74
2022/10/31 07:32:01;;;;;;;37.45;14.57;;;13.80;99.90;;;;;;5062169;28;25060;-74
2022/10/31 07:34:27;;;;;;;31.83;14.77;;;13.90;99.90;;;;;;5030950;28;25135;-73
2022/10/31 07:36:52;;;;;;;42.28;15.43;;;13.80;99.90;;;;;;5054586;28;25076;-74
2022/10/31 07:39:18;;;;;;;47.50;18.35;;;13.80;99.90;;;;;;5039849;28;25051;-74
2022/10/31 07:41:43;;;;;;;52.13;18.13;;;13.80;99.90;;;;;;5058887;28;25098;-74
2022/10/31 07:44:09;;;;;;;50.35;17.77;;;13.80;99.90;;;;;;5062790;28;25123;-73
2022/10/31 07:46:34;;;;;;;68.90;20.20;;;13.90;99.90;;;;;;5055959;28;25074;-75
2022/10/31 07:49:00;;;;;;;74.80;18.98;;;14.00;99.90;;;;;;5053099;28;25094;-73
2022/10/31 07:51:26;;;;;;;69.22;18.75;;;14.10;99.90;;;;;;5062680;28;25066;-73
2022/10/31 07:53:52;;;;;;;53.38;17.77;;;14.20;99.90;;;;;;5039589;28;25101;-75
2022/10/31 07:56:17;;;;;;;44.13;17.98;;;14.30;99.90;;;;;;5058247;28;25088;-73
2022/10/31 07:58:43;;;;;;;44.38;18.42;;;14.50;99.90;;;;;;5043033;28;25149;-73
2022/10/31 08:01:08;;;;;;;38.83;16.90;;;14.60;99.90;;;;;;5064847;28;25081;-74
2022/10/31 08:03:34;;;;;;;39.25;16.48;;;14.70;99.90;;;;;;5062840;28;25057;-74
2022/10/31 08:06:00;;;;;;;40.22;17.17;;;14.90;99.90;;;;;;5067920;28;25086;-73
2022/10/31 08:08:27;;;;;;;42.63;17.48;;;14.90;99.90;;;;;;5063202;28;25112;-74
2022/10/31 08:10:54;;;;;;;37.80;18.17;;;15.10;99.90;;;;;;5058083;28;25164;-74
2022/10/31 08:13:19;;;;;;;30.73;15.82;;;15.20;99.90;;;;;;5048616;28;25152;-73
2022/10/31 08:15:49;;;;;;;43.70;16.77;;;15.20;99.90;;;;;;5058693;28;25100;-73
2022/10/31 08:18:15;;;;;;;30.08;15.73;;;15.10;99.90;;;;;;5058553;28;25131;-74
2022/10/31 08:20:42;;;;;;;39.95;17.65;;;15.10;99.90;;;;;;5058073;28;25089;-74
2022/10/31 08:23:10;;;;;;;30.88;16.35;;;15.20;99.90;;;;;;5062092;28;25183;-74
2022/10/31 08:25:36;;;;;;;38.22;16.52;;;15.30;99.90;;;;;;5045809;28;25135;-75
2022/10/31 08:28:03;;;;;;;33.45;16.70;;;15.30;99.90;;;;;;5048079;28;25104;-74
2022/10/31 08:30:31;;;;;;;32.75;16.58;;;15.30;99.90;;;;;;5056526;28;25139;-74
2022/10/31 08:33:04;;;;;;;31.67;16.15;;;15.40;99.90;;;;;;5038818;28;25105;-75
2022/10/31 08:35:31;;;;;;;30.30;15.40;;;15.30;99.90;;;;;;5061258;28;25067;-73
2022/10/31 08:37:57;;;;;;;26.98;14.52;;;15.30;99.90;;;;;;5060958;28;25109;-74
2022/10/31 08:40:24;;;;;;;33.33;16.02;;;15.30;99.90;;;;;;5044591;28;25058;-73
2022/10/31 08:42:59;;;;;;;35.83;15.85;;;15.30;99.90;;;;;;5061280;28;25131;-73
2022/10/31 08:45:25;;;;;;;27.80;14.13;;;15.30;99.90;;;;;;5057257;28;25092;-73
2022/10/31 08:47:51;;;;;;;30.83;14.73;;;15.30;99.90;;;;;;5058005;28;25107;-73
2022/10/31 08:50:17;;;;;;;34.53;16.27;;;15.30;99.90;;;;;;5059599;28;25108;-74
2022/10/31 08:52:42;;;;;;;30.02;15.25;;;15.30;99.90;;;;;;5058847;28;25078;-74
2022/10/31 08:55:08;;;;;;;32.30;16.88;;;15.50;99.90;;;;;;5062482;28;25127;-74
2022/10/31 08:57:34;;;;;;;36.63;15.18;;;15.70;99.90;;;;;;5066576;28;25131;-74
2022/10/31 08:59:59;;;;;;;32.58;16.05;;;15.60;99.90;;;;;;5062058;28;25109;-73
2022/10/31 09:02:25;;;;;;;24.92;14.00;;;15.70;99.90;;;;;;5061826;28;25106;-74
2022/10/31 09:04:50;;;;;;;29.58;15.27;;;15.70;99.90;;;;;;5059309;28;25065;-74
2022/10/31 09:07:16;;;;;;;28.67;15.45;;;15.70;99.90;;;;;;5056566;28;25067;-74
2022/10/31 09:09:41;;;;;;;29.88;15.00;;;15.80;99.90;;;;;;5062405;28;25079;-74
2022/10/31 09:12:07;;;;;;;34.88;15.68;;;15.90;99.90;;;;;;5052958;28;25072;-73
2022/10/31 09:14:33;;;;;;;36.47;14.25;;;16.00;99.90;;;;;;5058569;28;25126;-74
2022/10/31 09:16:58;;;;;;;27.95;15.15;;;16.10;99.90;;;;;;5060091;28;25135;-73
2022/10/31 09:19:24;;;;;;;32.60;14.20;;;16.20;99.90;;;;;;5047257;28;25060;-74
2022/10/31 09:21:53;;;;;;;33.25;15.30;;;16.30;99.90;;;;;;5057509;28;25093;-74
2022/10/31 09:24:18;;;;;;;34.60;15.27;;;16.10;99.90;;;;;;5066770;28;25125;-73
2022/10/31 09:26:44;;;;;;;31.17;15.38;;;16.10;99.90;;;;;;5064461;28;25088;-72
2022/10/31 09:29:09;;;;;;;28.48;15.75;;;16.10;99.90;;;;;;5058713;28;25053;-74
2022/10/31 09:31:36;;;;;;;33.20;15.70;;;16.30;99.90;;;;;;5058130;28;25064;-74
2022/10/31 09:34:01;;;;;;;31.17;15.27;;;16.40;99.90;;;;;;5053322;28;25057;-74
2022/10/31 09:36:27;;;;;;;32.15;15.60;;;16.50;99.90;;;;;;5053781;28;25052;-74
2022/10/31 09:38:52;;;;;;;28.77;15.25;;;16.70;99.90;;;;;;5060128;28;25150;-73
2022/10/31 09:41:38;;;;;;;30.52;15.07;;;16.60;99.90;;;;;;5043953;28;25144;-72
2022/10/31 09:44:26;;;;;;;34.28;14.48;;;16.40;99.90;;;;;;5066642;28;25058;-74
2022/10/31 09:46:58;;;;;;;33.78;16.23;;;16.60;99.90;;;;;;5062913;28;25136;-75
2022/10/31 09:49:54;;;;;;;34.20;14.63;;;16.30;99.90;;;;;;5057755;28;25132;-75
2022/10/31 09:52:26;;;;;;;33.75;15.70;;;16.30;99.90;;;;;;5053909;28;25141;-74
2022/10/31 09:55:00;;;;;;;32.33;15.43;;;16.30;99.90;;;;;;5034792;28;25056;-74
2022/10/31 09:57:30;;;;;;;34.97;16.27;;;16.40;99.90;;;;;;5033993;28;25064;-74
2022/10/31 09:59:56;;;;;;;31.92;15.88;;;16.50;99.90;;;;;;5057628;28;25044;-75
2022/10/31 10:02:40;;;;;;;28.13;16.38;;;16.70;99.90;;;;;;5056473;28;25054;-74
2022/10/31 10:05:14;;;;;;;31.08;15.38;;;16.90;99.90;;;;;;5057995;28;25077;-74
2022/10/31 10:07:55;;;;;;;38.08;15.82;;;17.00;99.90;;;;;;5057101;28;25151;-73
2022/10/31 10:10:47;;;;;;;29.33;15.88;;;16.90;99.90;;;;;;5039020;28;25068;-74
2022/10/31 10:13:30;;;;;;;35.95;16.92;;;16.80;99.90;;;;;;5053053;28;25102;-73
2022/10/31 10:16:23;;;;;;;32.92;17.05;;;16.90;99.90;;;;;;5057111;28;25055;-73
2022/10/31 10:19:07;;;;;;;36.22;17.23;;;16.90;99.90;;;;;;5060983;28;25099;-75
2022/10/31 10:21:59;;;;;;;27.98;14.77;;;16.90;99.90;;;;;;5065255;28;25059;-74
2022/10/31 10:24:29;;;;;;;35.72;16.30;;;16.70;99.90;;;;;;5042076;28;25061;-73
2022/10/31 10:27:03;;;;;;;34.17;17.13;;;16.80;99.90;;;;;;5068392;28;25163;-73
2022/10/31 10:30:03;;;;;;;30.60;16.60;;;17.00;99.90;;;;;;5074565;28;25070;-73
2022/10/31 10:32:34;;;;;;;33.50;16.05;;;17.10;99.90;;;;;;5051077;28;25112;-73
2022/10/31 10:35:13;;;;;;;31.08;15.63;;;17.20;99.90;;;;;;5063853;28;25071;-73
2022/10/31 10:37:41;;;;;;;28.77;14.38;;;17.10;99.90;;;;;;5073701;28;25158;-74
2022/10/31 10:40:24;;;;;;;26.95;14.48;;;17.30;99.90;;;;;;5055075;28;25105;-74
2022/10/31 10:48:47;;;;;;;27.40;15.50;;;17.60;99.90;;;;;;5056023;28;25124;-73
2022/10/31 10:51:22;;;;;;;31.95;14.32;;;17.60;99.90;;;;;;5039719;28;25073;-74
2022/10/31 10:54:03;;;;;;;33.20;15.13;;;17.80;99.90;;;;;;5058335;28;25075;-74
2022/10/31 10:56:50;;;;;;;31.23;14.48;;;17.80;99.90;;;;;;5061044;28;25060;-73
2022/10/31 10:59:20;;;;;;;32.60;15.13;;;17.80;99.90;;;;;;5067110;28;25063;-73
2022/10/31 11:01:47;;;;;;;37.88;16.27;;;17.80;99.90;;;;;;5066894;28;25118;-73
2022/10/31 11:04:22;;;;;;;31.60;14.75;;;17.80;99.90;;;;;;5062632;28;25123;-73
2022/10/31 11:06:57;;;;;;;33.92;15.38;;;17.70;99.90;;;;;;5066213;28;25052;-74
2022/10/31 11:09:23;;;;;;;36.03;14.40;;;17.60;99.90;;;;;;5065232;28;25078;-73
2022/10/31 11:11:49;;;;;;;27.63;15.05;;;17.60;99.90;;;;;;5063712;28;25055;-74
2022/10/31 11:14:16;;;;;;;28.80;15.80;;;17.60;99.90;;;;;;5053852;28;25151;-73
2022/10/31 11:16:49;;;;;;;28.90;16.60;;;17.40;99.90;;;;;;5065185;28;25066;-73
2022/10/31 11:19:26;;;;;;;33.45;16.92;;;17.30;99.90;;;;;;5060565;28;25067;-73
2022/10/31 11:21:53;;;;;;;38.08;18.42;;;17.40;99.90;;;;;;5061476;28;25122;-73
2022/10/31 11:24:21;;;;;;;35.65;18.15;;;17.40;99.90;;;;;;5066652;28;25105;-73
2022/10/31 11:26:48;;;;;;;37.95;15.88;;;17.40;99.90;;;;;;5065499;28;25061;-72
2022/10/31 11:29:19;;;;;;;43.47;19.02;;;17.50;99.90;;;;;;5061026;28;25080;-74
2022/10/31 11:31:47;;;;;;;41.70;18.70;;;17.50;99.90;;;;;;5047217;28;25143;-74
2022/10/31 11:34:29;;;;;;;37.08;18.48;;;17.50;99.90;;;;;;5067121;28;25086;-75
2022/10/31 11:37:02;;;;;;;39.70;20.02;;;17.50;99.90;;;;;;5052600;28;25128;-72
2022/10/31 11:39:28;;;;;;;45.60;17.92;;;17.70;99.90;;;;;;5059840;28;25111;-74
2022/10/31 11:41:59;;;;;;;44.45;19.40;;;17.70;99.90;;;;;;5068597;28;25091;-73
2022/10/31 11:44:28;;;;;;;40.95;20.02;;;17.70;99.90;;;;;;5071509;28;25075;-73
2022/10/31 11:47:01;;;;;;;40.55;20.05;;;17.80;99.90;;;;;;5052259;28;25067;-71
2022/10/31 11:49:36;;;;;;;41.13;19.02;;;17.80;99.90;;;;;;5057909;28;25060;-73
2022/10/31 11:52:30;;;;;;;45.25;20.08;;;17.80;99.90;;;;;;5041549;28;25170;-74
2022/10/31 11:55:01;;;;;;;42.42;19.92;;;17.90;99.90;;;;;;5059114;28;25149;-74
2022/10/31 11:57:32;;;;;;;47.50;22.27;;;17.70;99.90;;;;;;5067401;28;25083;-74
2022/10/31 12:00:04;;;;;;;40.88;20.20;;;17.60;99.90;;;;;;5073798;28;25057;-74
2022/10/31 12:02:30;;;;;;;51.05;22.13;;;17.70;99.90;;;;;;5063395;28;25104;-73
2022/10/31 12:05:11;;;;;;;43.75;21.10;;;17.80;99.90;;;;;;5072571;28;25309;-74
2022/10/31 12:07:36;;;;;;;48.30;22.10;;;17.80;99.90;;;;;;5074104;28;25067;-74
2022/10/31 12:10:11;;;;;;;55.15;22.15;;;17.70;99.90;;;;;;5051386;28;25088;-75
2022/10/31 12:13:08;;;;;;;52.30;21.67;;;17.80;99.90;;;;;;5083873;28;25066;-74
2022/10/31 12:15:36;;;;;;;53.13;21.50;;;17.90;99.90;;;;;;5046841;28;25055;-75
2022/10/31 12:18:39;;;;;;;46.38;21.25;;;18.20;99.90;;;;;;5049261;28;25104;-74
2022/10/31 12:21:25;;;;;;;44.38;21.05;;;18.20;99.90;;;;;;5055226;28;25076;-74
2022/10/31 12:24:18;;;;;;;50.70;21.55;;;18.20;99.90;;;;;;5080181;28;25076;-74
2022/10/31 12:26:52;;;;;;;64.93;22.80;;;18.20;99.90;;;;;;5086847;28;25128;-74
2022/10/31 12:30:16;;;;;;;46.08;22.27;;;18.10;99.90;;;;;;5065471;28;25073;-74
2022/10/31 12:33:09;;;;;;;52.90;22.05;;;18.20;99.90;;;;;;4984260;28;25115;-74
2022/10/31 12:35:37;;;;;;;54.95;19.83;;;18.20;99.90;;;;;;5066419;28;25083;-73
2022/10/31 12:38:41;;;;;;;45.35;20.27;;;18.40;99.90;;;;;;5065343;28;25089;-74
2022/10/31 12:41:24;;;;;;;41.90;19.65;;;18.30;99.90;;;;;;5058720;28;25086;-74
2022/10/31 12:44:06;;;;;;;50.90;20.70;;;18.50;99.90;;;;;;5067889;28;25048;-73
2022/10/31 12:46:51;;;;;;;47.13;19.98;;;18.30;99.90;;;;;;5068063;28;25060;-73
2022/10/31 12:49:42;;;;;;;43.22;20.42;;;18.30;99.90;;;;;;5071779;28;25077;-73